sensor_id;sensor_type;location;lat;lon;timestamp;pressure;altitude;pressure_sealevel;temperature;humidity
15568;BME280;7885;42.596;23.044;2023-03-18T00:00:20;93293.31;;;1.39;85.94
15568;BME280;7885;42.596;23.044;2023-03-18T00:02:47;93296.19;;;1.34;86.08
15568;BME280;7885;42.596;23.044;2023-03-18T00:05:14;93284.81;;;1.37;86.00
15568;BME280;7885;42.596;23.044;2023-03-18T00:07:44;93263.81;;;1.19;84.08
15568;BME280;7885;42.596;23.044;2023-03-18T00:10:11;93280.34;;;1.41;84.76
15568;BME280;7885;42.596;23.044;2023-03-18T00:12:39;93276.13;;;1.40;84.00
15568;BME280;7885;42.596;23.044;2023-03-18T00:15:08;93274.41;;;1.36;82.63
15568;BME280;7885;42.596;23.044;2023-03-18T00:17:35;93221.38;;;1.00;82.63
15568;BME280;7885;42.596;23.044;2023-03-18T00:20:03;93244.47;;;1.13;82.81
15568;BME280;7885;42.596;23.044;2023-03-18T00:22:31;93269.13;;;1.27;84.73
15568;BME280;7885;42.596;23.044;2023-03-18T00:24:59;93264.25;;;1.21;84.68
15568;BME280;7885;42.596;23.044;2023-03-18T00:27:26;93226.69;;;0.88;86.02
15568;BME280;7885;42.596;23.044;2023-03-18T00:29:53;93256.34;;;1.03;86.85
15568;BME280;7885;42.596;23.044;2023-03-18T00:32:20;93214.47;;;0.78;87.43
15568;BME280;7885;42.596;23.044;2023-03-18T00:34:47;93260.75;;;1.08;87.09
15568;BME280;7885;42.596;23.044;2023-03-18T00:37:15;93253.19;;;1.10;86.84
15568;BME280;7885;42.596;23.044;2023-03-18T00:39:54;93242.47;;;1.10;86.18
15568;BME280;7885;42.596;23.044;2023-03-18T00:42:22;93248.00;;;1.05;83.45
15568;BME280;7885;42.596;23.044;2023-03-18T00:44:50;93229.38;;;0.88;82.82
15568;BME280;7885;42.596;23.044;2023-03-18T00:47:16;93247.28;;;0.96;84.03
15568;BME280;7885;42.596;23.044;2023-03-18T00:49:43;93227.00;;;0.86;85.52
15568;BME280;7885;42.596;23.044;2023-03-18T00:52:10;93242.81;;;1.00;85.91
15568;BME280;7885;42.596;23.044;2023-03-18T00:54:36;93240.63;;;1.02;86.35
15568;BME280;7885;42.596;23.044;2023-03-18T00:57:03;93220.91;;;0.86;86.84
15568;BME280;7885;42.596;23.044;2023-03-18T00:59:32;93236.19;;;1.06;86.50
15568;BME280;7885;42.596;23.044;2023-03-18T01:01:58;93231.94;;;1.05;86.32
15568;BME280;7885;42.596;23.044;2023-03-18T01:04:25;93228.47;;;1.05;86.27
15568;BME280;7885;42.596;23.044;2023-03-18T01:06:52;93230.03;;;1.06;85.11
15568;BME280;7885;42.596;23.044;2023-03-18T01:09:19;93222.97;;;1.01;83.60
15568;BME280;7885;42.596;23.044;2023-03-18T01:11:45;93207.63;;;0.89;84.88
15568;BME280;7885;42.596;23.044;2023-03-18T01:14:12;93224.28;;;0.95;86.04
15568;BME280;7885;42.596;23.044;2023-03-18T01:16:40;93169.53;;;0.63;86.02
15568;BME280;7885;42.596;23.044;2023-03-18T01:19:07;93217.34;;;0.94;85.92
15568;BME280;7885;42.596;23.044;2023-03-18T01:21:34;93212.78;;;0.94;86.05
15568;BME280;7885;42.596;23.044;2023-03-18T01:24:02;93221.16;;;0.93;85.56
15568;BME280;7885;42.596;23.044;2023-03-18T01:26:29;93210.19;;;0.86;83.23
15568;BME280;7885;42.596;23.044;2023-03-18T01:28:56;93208.19;;;0.74;83.82
15568;BME280;7885;42.596;23.044;2023-03-18T01:31:22;93217.16;;;0.78;85.53
15568;BME280;7885;42.596;23.044;2023-03-18T01:33:51;93186.59;;;0.59;86.68
15568;BME280;7885;42.596;23.044;2023-03-18T01:36:18;93168.84;;;0.45;87.52
15568;BME280;7885;42.596;23.044;2023-03-18T01:38:46;93212.91;;;0.77;87.26
15568;BME280;7885;42.596;23.044;2023-03-18T01:41:13;93216.69;;;0.76;87.69
15568;BME280;7885;42.596;23.044;2023-03-18T01:43:42;93205.66;;;0.78;87.80
15568;BME280;7885;42.596;23.044;2023-03-18T01:46:42;93218.41;;;0.81;86.76
15568;BME280;7885;42.596;23.044;2023-03-18T01:49:14;93213.81;;;0.81;86.69
15568;BME280;7885;42.596;23.044;2023-03-18T01:51:45;93211.47;;;0.80;86.89
15568;BME280;7885;42.596;23.044;2023-03-18T01:54:15;93211.66;;;0.75;86.00
15568;BME280;7885;42.596;23.044;2023-03-18T01:56:45;93211.47;;;0.80;85.74
15568;BME280;7885;42.596;23.044;2023-03-18T01:59:13;93196.56;;;0.70;85.98
15568;BME280;7885;42.596;23.044;2023-03-18T02:01:47;93202.97;;;0.78;86.02
15568;BME280;7885;42.596;23.044;2023-03-18T02:07:40;93196.31;;;0.63;84.24
15568;BME280;7885;42.596;23.044;2023-03-18T02:10:12;93190.38;;;0.58;85.34
15568;BME280;7885;42.596;23.044;2023-03-18T02:12:45;93172.00;;;0.47;86.90
15568;BME280;7885;42.596;23.044;2023-03-18T02:15:13;93139.72;;;0.23;86.86
15568;BME280;7885;42.596;23.044;2023-03-18T02:17:44;93148.69;;;0.27;84.75
15568;BME280;7885;42.596;23.044;2023-03-18T02:20:23;93185.13;;;0.40;85.81
15568;BME280;7885;42.596;23.044;2023-03-18T02:22:58;93163.34;;;0.21;86.45
15568;BME280;7885;42.596;23.044;2023-03-18T02:25:33;93182.53;;;0.23;85.92
15568;BME280;7885;42.596;23.044;2023-03-18T02:28:06;93182.41;;;0.20;84.70
15568;BME280;7885;42.596;23.044;2023-03-18T02:30:37;93178.50;;;0.17;85.87
15568;BME280;7885;42.596;23.044;2023-03-18T02:33:06;93181.47;;;0.16;86.63
15568;BME280;7885;42.596;23.044;2023-03-18T02:35:35;93178.50;;;0.17;87.44
15568;BME280;7885;42.596;23.044;2023-03-18T02:38:02;93179.25;;;0.18;85.12
15568;BME280;7885;42.596;23.044;2023-03-18T02:40:31;93178.00;;;0.15;83.97
15568;BME280;7885;42.596;23.044;2023-03-18T02:43:16;93169.16;;;-0.06;83.58
15568;BME280;7885;42.596;23.044;2023-03-18T02:45:50;93151.25;;;-0.14;86.50
15568;BME280;7885;42.596;23.044;2023-03-18T02:48:22;93112.56;;;-0.46;88.10
15568;BME280;7885;42.596;23.044;2023-03-18T02:50:49;93142.81;;;-0.25;88.73
15568;BME280;7885;42.596;23.044;2023-03-18T02:53:16;93175.75;;;-0.04;89.63
15568;BME280;7885;42.596;23.044;2023-03-18T02:55:43;93179.19;;;-0.03;89.67
15568;BME280;7885;42.596;23.044;2023-03-18T02:58:12;93181.41;;;-0.05;89.50
15568;BME280;7885;42.596;23.044;2023-03-18T03:00:38;93185.47;;;0.01;90.59
15568;BME280;7885;42.596;23.044;2023-03-18T03:03:05;93128.50;;;-0.29;90.50
15568;BME280;7885;42.596;23.044;2023-03-18T03:05:33;93171.00;;;0.02;90.07
15568;BME280;7885;42.596;23.044;2023-03-18T03:08:00;93178.59;;;0.00;85.34
15568;BME280;7885;42.596;23.044;2023-03-18T03:10:28;93170.28;;;-0.16;86.13
15568;BME280;7885;42.596;23.044;2023-03-18T03:12:55;93188.06;;;-0.11;85.21
15568;BME280;7885;42.596;23.044;2023-03-18T03:15:23;93183.34;;;-0.14;85.68
15568;BME280;7885;42.596;23.044;2023-03-18T03:17:50;93135.38;;;-0.48;85.59
15568;BME280;7885;42.596;23.044;2023-03-18T03:20:19;93187.13;;;-0.15;85.19
15568;BME280;7885;42.596;23.044;2023-03-18T03:22:46;93160.31;;;-0.36;84.57
15568;BME280;7885;42.596;23.044;2023-03-18T03:25:13;93158.59;;;-0.40;84.67
15568;BME280;7885;42.596;23.044;2023-03-18T03:27:40;93179.13;;;-0.24;85.73
15568;BME280;7885;42.596;23.044;2023-03-18T03:30:10;93189.97;;;-0.20;86.38
15568;BME280;7885;42.596;23.044;2023-03-18T03:32:40;93192.84;;;-0.25;86.51
15568;BME280;7885;42.596;23.044;2023-03-18T03:35:09;93137.91;;;-0.61;88.03
15568;BME280;7885;42.596;23.044;2023-03-18T03:37:37;93191.59;;;-0.28;88.36
15568;BME280;7885;42.596;23.044;2023-03-18T03:40:05;93185.47;;;-0.28;88.12
15568;BME280;7885;42.596;23.044;2023-03-18T03:42:32;93188.78;;;-0.31;87.62
15568;BME280;7885;42.596;23.044;2023-03-18T03:44:59;93190.19;;;-0.34;86.36
15568;BME280;7885;42.596;23.044;2023-03-18T03:47:26;93191.91;;;-0.38;83.80
15568;BME280;7885;42.596;23.044;2023-03-18T03:49:54;93203.59;;;-0.42;83.30
15568;BME280;7885;42.596;23.044;2023-03-18T03:52:21;93176.91;;;-0.60;84.66
15568;BME280;7885;42.596;23.044;2023-03-18T03:54:48;93111.63;;;-1.05;85.19
15568;BME280;7885;42.596;23.044;2023-03-18T03:57:15;93181.16;;;-0.67;85.34
15568;BME280;7885;42.596;23.044;2023-03-18T03:59:42;93181.31;;;-0.64;87.86
15568;BME280;7885;42.596;23.044;2023-03-18T04:02:09;93192.75;;;-0.55;89.59
15568;BME280;7885;42.596;23.044;2023-03-18T04:04:36;93187.09;;;-0.62;91.31
15568;BME280;7885;42.596;23.044;2023-03-18T04:07:04;93192.31;;;-0.57;91.57
15568;BME280;7885;42.596;23.044;2023-03-18T04:09:31;93199.84;;;-0.59;88.08
15568;BME280;7885;42.596;23.044;2023-03-18T04:11:59;93203.16;;;-0.62;85.23
15568;BME280;7885;42.596;23.044;2023-03-18T04:14:25;93197.34;;;-0.64;87.79
15568;BME280;7885;42.596;23.044;2023-03-18T04:16:52;93202.06;;;-0.61;90.51
15568;BME280;7885;42.596;23.044;2023-03-18T04:19:20;93192.16;;;-0.60;90.78
15568;BME280;7885;42.596;23.044;2023-03-18T04:21:47;93194.81;;;-0.69;90.45
15568;BME280;7885;42.596;23.044;2023-03-18T04:24:15;93199.88;;;-0.76;90.86
15568;BME280;7885;42.596;23.044;2023-03-18T04:26:43;93201.31;;;-0.87;89.52
15568;BME280;7885;42.596;23.044;2023-03-18T04:29:10;93204.31;;;-0.97;91.48
15568;BME280;7885;42.596;23.044;2023-03-18T04:31:37;93208.53;;;-0.96;92.77
15568;BME280;7885;42.596;23.044;2023-03-18T04:34:03;93185.16;;;-1.08;92.77
15568;BME280;7885;42.596;23.044;2023-03-18T04:36:30;93206.19;;;-0.89;90.03
15568;BME280;7885;42.596;23.044;2023-03-18T04:38:57;93167.72;;;-1.22;86.44
15568;BME280;7885;42.596;23.044;2023-03-18T04:41:25;93183.88;;;-1.10;90.07
15568;BME280;7885;42.596;23.044;2023-03-18T04:43:52;93188.28;;;-0.97;92.82
15568;BME280;7885;42.596;23.044;2023-03-18T04:46:19;93183.09;;;-0.93;93.39
15568;BME280;7885;42.596;23.044;2023-03-18T04:48:46;93137.72;;;-1.19;91.47
15568;BME280;7885;42.596;23.044;2023-03-18T04:51:13;93204.59;;;-0.73;90.72
15568;BME280;7885;42.596;23.044;2023-03-18T04:53:40;93207.56;;;-0.57;89.96
15568;BME280;7885;42.596;23.044;2023-03-18T04:56:07;93191.69;;;-0.62;88.52
15568;BME280;7885;42.596;23.044;2023-03-18T04:58:35;93194.03;;;-0.61;87.99
15568;BME280;7885;42.596;23.044;2023-03-18T05:01:02;93208.50;;;-0.53;87.07
15568;BME280;7885;42.596;23.044;2023-03-18T05:03:29;93203.63;;;-0.60;86.34
15568;BME280;7885;42.596;23.044;2023-03-18T05:05:56;93229.97;;;-0.41;85.68
15568;BME280;7885;42.596;23.044;2023-03-18T05:08:23;93227.59;;;-0.34;86.57
15568;BME280;7885;42.596;23.044;2023-03-18T05:10:49;93226.03;;;-0.26;87.57
15568;BME280;7885;42.596;23.044;2023-03-18T05:13:16;93194.00;;;-0.43;88.40
15568;BME280;7885;42.596;23.044;2023-03-18T05:15:44;93213.09;;;-0.16;88.82
15568;BME280;7885;42.596;23.044;2023-03-18T05:18:14;93212.78;;;-0.14;88.26
15568;BME280;7885;42.596;23.044;2023-03-18T05:20:41;93229.34;;;0.09;87.72
15568;BME280;7885;42.596;23.044;2023-03-18T05:23:07;93230.88;;;0.18;87.34
15568;BME280;7885;42.596;23.044;2023-03-18T05:25:34;93214.81;;;0.18;87.37
15568;BME280;7885;42.596;23.044;2023-03-18T05:28:01;93205.50;;;0.24;87.14
15568;BME280;7885;42.596;23.044;2023-03-18T05:30:28;93239.38;;;0.49;87.35
15568;BME280;7885;42.596;23.044;2023-03-18T05:32:56;93233.66;;;0.60;86.96
15568;BME280;7885;42.596;23.044;2023-03-18T05:35:23;93224.53;;;0.61;86.81
15568;BME280;7885;42.596;23.044;2023-03-18T05:37:50;93192.50;;;0.43;86.41
15568;BME280;7885;42.596;23.044;2023-03-18T05:40:17;93243.88;;;0.87;86.14
15568;BME280;7885;42.596;23.044;2023-03-18T05:42:43;93227.66;;;0.83;86.04
15568;BME280;7885;42.596;23.044;2023-03-18T05:51:55;93244.53;;;1.25;84.90
15568;BME280;7885;42.596;23.044;2023-03-18T05:54:22;93172.41;;;0.79;84.17
15568;BME280;7885;42.596;23.044;2023-03-18T05:56:49;93162.34;;;0.76;83.77
15568;BME280;7885;42.596;23.044;2023-03-18T05:59:17;93252.28;;;1.39;83.84
15568;BME280;7885;42.596;23.044;2023-03-18T06:01:44;93227.47;;;1.30;84.56
15568;BME280;7885;42.596;23.044;2023-03-18T06:04:11;93194.00;;;1.15;84.76
15568;BME280;7885;42.596;23.044;2023-03-18T06:06:38;93235.09;;;1.40;85.36
15568;BME280;7885;42.596;23.044;2023-03-18T06:09:07;93252.50;;;1.55;86.04
15568;BME280;7885;42.596;23.044;2023-03-18T06:11:34;93255.06;;;1.63;85.86
15568;BME280;7885;42.596;23.044;2023-03-18T06:14:01;93239.78;;;1.64;86.77
15568;BME280;7885;42.596;23.044;2023-03-18T06:16:28;93219.41;;;1.63;86.75
15568;BME280;7885;42.596;23.044;2023-03-18T06:18:55;93218.56;;;1.71;86.54
15568;BME280;7885;42.596;23.044;2023-03-18T06:21:23;93185.44;;;1.55;86.04
15568;BME280;7885;42.596;23.044;2023-03-18T06:23:50;93247.03;;;1.96;86.12
15568;BME280;7885;42.596;23.044;2023-03-18T06:26:18;93204.81;;;1.72;86.09
15568;BME280;7885;42.596;23.044;2023-03-18T06:28:45;93251.28;;;2.09;86.43
15568;BME280;7885;42.596;23.044;2023-03-18T06:31:12;93253.97;;;2.21;86.26
15568;BME280;7885;42.596;23.044;2023-03-18T06:33:39;93258.28;;;2.34;86.49
15568;BME280;7885;42.596;23.044;2023-03-18T06:36:07;93166.72;;;1.91;85.89
15568;BME280;7885;42.596;23.044;2023-03-18T06:38:35;93255.13;;;2.57;85.78
15568;BME280;7885;42.596;23.044;2023-03-18T06:41:02;93226.69;;;2.43;85.54
15568;BME280;7885;42.596;23.044;2023-03-18T06:43:31;93255.78;;;2.78;85.79
15568;BME280;7885;42.596;23.044;2023-03-18T06:45:57;93209.34;;;2.65;85.26
15568;BME280;7885;42.596;23.044;2023-03-18T06:48:24;93240.22;;;2.95;85.00
15568;BME280;7885;42.596;23.044;2023-03-18T06:50:51;93250.81;;;3.16;85.69
15568;BME280;7885;42.596;23.044;2023-03-18T06:53:18;93241.06;;;3.24;84.81
15568;BME280;7885;42.596;23.044;2023-03-18T06:55:45;93252.59;;;3.52;83.63
15568;BME280;7885;42.596;23.044;2023-03-18T06:58:12;93251.28;;;3.74;83.70
15568;BME280;7885;42.596;23.044;2023-03-18T07:00:41;93250.38;;;3.82;83.12
15568;BME280;7885;42.596;23.044;2023-03-18T07:03:11;93247.78;;;4.01;82.23
15568;BME280;7885;42.596;23.044;2023-03-18T07:05:40;93233.81;;;4.11;81.36
15568;BME280;7885;42.596;23.044;2023-03-18T07:08:07;93251.81;;;4.38;80.25
15568;BME280;7885;42.596;23.044;2023-03-18T07:10:34;93247.81;;;4.64;80.46
15568;BME280;7885;42.596;23.044;2023-03-18T07:13:01;93250.50;;;4.95;79.88
15568;BME280;7885;42.596;23.044;2023-03-18T07:15:27;93232.72;;;5.09;77.48
15568;BME280;7885;42.596;23.044;2023-03-18T07:17:56;93162.47;;;4.87;76.85
15568;BME280;7885;42.596;23.044;2023-03-18T07:20:24;93256.16;;;5.98;76.59
15568;BME280;7885;42.596;23.044;2023-03-18T07:22:51;93237.66;;;6.65;73.91
15568;BME280;7885;42.596;23.044;2023-03-18T07:28:39;93243.25;;;11.70;56.04
15568;BME280;7885;42.596;23.044;2023-03-18T07:31:06;93248.53;;;14.25;49.18
15568;BME280;7885;42.596;23.044;2023-03-18T07:33:35;93242.28;;;16.28;42.19
15568;BME280;7885;42.596;23.044;2023-03-18T07:36:02;93236.34;;;18.18;38.13
15568;BME280;7885;42.596;23.044;2023-03-18T07:38:29;93240.13;;;19.83;32.96
15568;BME280;7885;42.596;23.044;2023-03-18T07:40:55;93238.59;;;21.46;29.75
15568;BME280;7885;42.596;23.044;2023-03-18T07:43:22;93236.38;;;22.85;28.14
15568;BME280;7885;42.596;23.044;2023-03-18T07:45:49;93244.13;;;24.39;25.09
15568;BME280;7885;42.596;23.044;2023-03-18T07:48:15;93228.75;;;25.65;23.21
15568;BME280;7885;42.596;23.044;2023-03-18T07:50:43;93228.13;;;26.10;21.79
15568;BME280;7885;42.596;23.044;2023-03-18T07:53:10;93236.81;;;27.13;21.06
15568;BME280;7885;42.596;23.044;2023-03-18T07:55:37;93224.84;;;27.95;20.18
15568;BME280;7885;42.596;23.044;2023-03-18T07:58:05;93231.41;;;28.72;18.56
15568;BME280;7885;42.596;23.044;2023-03-18T08:00:32;93240.88;;;28.85;17.88
15568;BME280;7885;42.596;23.044;2023-03-18T08:03:00;93231.28;;;29.03;17.72
15568;BME280;7885;42.596;23.044;2023-03-18T08:05:26;93215.56;;;29.78;16.87
15568;BME280;7885;42.596;23.044;2023-03-18T08:07:54;93217.81;;;30.40;16.78
15568;BME280;7885;42.596;23.044;2023-03-18T08:10:21;93236.22;;;31.16;16.36
15568;BME280;7885;42.596;23.044;2023-03-18T08:12:48;93223.78;;;31.82;15.13
15568;BME280;7885;42.596;23.044;2023-03-18T08:15:15;93233.44;;;31.86;14.73
15568;BME280;7885;42.596;23.044;2023-03-18T08:17:42;93233.72;;;32.18;14.45
15568;BME280;7885;42.596;23.044;2023-03-18T08:20:09;93222.41;;;32.48;14.72
15568;BME280;7885;42.596;23.044;2023-03-18T08:22:36;93218.59;;;32.45;14.29
15568;BME280;7885;42.596;23.044;2023-03-18T08:25:05;93172.16;;;31.74;14.97
15568;BME280;7885;42.596;23.044;2023-03-18T08:27:32;93218.91;;;31.41;14.65
15568;BME280;7885;42.596;23.044;2023-03-18T08:29:59;93222.97;;;29.70;15.63
15568;BME280;7885;42.596;23.044;2023-03-18T08:32:26;93216.94;;;27.63;17.02
15568;BME280;7885;42.596;23.044;2023-03-18T08:34:53;93212.97;;;26.31;19.09
15568;BME280;7885;42.596;23.044;2023-03-18T08:37:20;93210.09;;;25.12;19.67
15568;BME280;7885;42.596;23.044;2023-03-18T08:39:46;93213.81;;;24.18;21.02
15568;BME280;7885;42.596;23.044;2023-03-18T08:42:14;93210.00;;;24.06;21.22
15568;BME280;7885;42.596;23.044;2023-03-18T08:44:41;93204.91;;;23.81;21.19
15568;BME280;7885;42.596;23.044;2023-03-18T08:47:08;93193.84;;;24.43;21.18
15568;BME280;7885;42.596;23.044;2023-03-18T08:49:35;93156.28;;;25.35;19.76
15568;BME280;7885;42.596;23.044;2023-03-18T08:52:03;93208.34;;;25.58;19.00
15568;BME280;7885;42.596;23.044;2023-03-18T08:54:31;93209.41;;;24.49;20.28
15568;BME280;7885;42.596;23.044;2023-03-18T08:56:57;93152.72;;;23.10;21.16
15568;BME280;7885;42.596;23.044;2023-03-18T08:59:26;93208.56;;;25.11;20.73
15568;BME280;7885;42.596;23.044;2023-03-18T09:01:53;93159.69;;;26.29;18.70
15568;BME280;7885;42.596;23.044;2023-03-18T09:04:19;93179.78;;;28.30;17.27
15568;BME280;7885;42.596;23.044;2023-03-18T09:06:46;93207.88;;;28.10;16.46
15568;BME280;7885;42.596;23.044;2023-03-18T09:09:14;93210.28;;;28.28;17.17
15568;BME280;7885;42.596;23.044;2023-03-18T09:11:41;93202.81;;;29.60;16.08
15568;BME280;7885;42.596;23.044;2023-03-18T09:14:09;93211.72;;;29.58;15.08
15568;BME280;7885;42.596;23.044;2023-03-18T09:16:39;93206.09;;;30.14;15.35
15568;BME280;7885;42.596;23.044;2023-03-18T09:19:05;93208.56;;;28.95;15.29
15568;BME280;7885;42.596;23.044;2023-03-18T09:21:32;93208.69;;;27.22;16.22
15568;BME280;7885;42.596;23.044;2023-03-18T09:24:00;93203.78;;;24.35;17.57
15568;BME280;7885;42.596;23.044;2023-03-18T09:26:26;93210.59;;;22.21;18.73
15568;BME280;7885;42.596;23.044;2023-03-18T09:28:53;93206.84;;;20.33;20.53
15568;BME280;7885;42.596;23.044;2023-03-18T09:31:20;93207.75;;;19.83;21.46
15568;BME280;7885;42.596;23.044;2023-03-18T09:33:48;93125.03;;;20.01;21.10
15568;BME280;7885;42.596;23.044;2023-03-18T09:36:15;93159.31;;;22.34;19.27
15568;BME280;7885;42.596;23.044;2023-03-18T09:38:42;93197.50;;;21.94;19.24
15568;BME280;7885;42.596;23.044;2023-03-18T09:41:20;93191.50;;;22.59;19.45
15568;BME280;7885;42.596;23.044;2023-03-18T09:43:56;93200.69;;;24.18;18.04
15568;BME280;7885;42.596;23.044;2023-03-18T09:46:31;93182.47;;;24.70;16.99
15568;BME280;7885;42.596;23.044;2023-03-18T09:49:13;93171.44;;;25.63;17.31
15568;BME280;7885;42.596;23.044;2023-03-18T09:51:50;93191.19;;;27.53;15.94
15568;BME280;7885;42.596;23.044;2023-03-18T09:54:28;93217.34;;;28.60;14.53
15568;BME280;7885;42.596;23.044;2023-03-18T09:56:56;93198.88;;;27.95;14.08
15568;BME280;7885;42.596;23.044;2023-03-18T09:59:27;93206.00;;;26.82;14.57
15568;BME280;7885;42.596;23.044;2023-03-18T10:01:56;93168.16;;;27.38;14.81
15568;BME280;7885;42.596;23.044;2023-03-18T10:04:28;93155.72;;;27.39;14.54
15568;BME280;7885;42.596;23.044;2023-03-18T10:07:02;93209.72;;;28.13;14.90
15568;BME280;7885;42.596;23.044;2023-03-18T10:09:37;93208.97;;;27.81;14.32
15568;BME280;7885;42.596;23.044;2023-03-18T10:12:11;93163.47;;;27.49;14.31
15568;BME280;7885;42.596;23.044;2023-03-18T10:14:44;93208.50;;;27.31;15.19
15568;BME280;7885;42.596;23.044;2023-03-18T10:17:16;93180.84;;;27.33;14.95
15568;BME280;7885;42.596;23.044;2023-03-18T10:19:49;93204.78;;;27.40;14.92
15568;BME280;7885;42.596;23.044;2023-03-18T10:22:31;93172.09;;;27.20;15.51
15568;BME280;7885;42.596;23.044;2023-03-18T10:25:08;93200.81;;;27.83;15.04
15568;BME280;7885;42.596;23.044;2023-03-18T10:27:47;93203.69;;;28.31;14.84
15568;BME280;7885;42.596;23.044;2023-03-18T10:30:35;93203.41;;;28.72;14.24
15568;BME280;7885;42.596;23.044;2023-03-18T10:33:12;93204.53;;;28.43;14.58
15568;BME280;7885;42.596;23.044;2023-03-18T10:35:47;93191.84;;;29.56;14.42
15568;BME280;7885;42.596;23.044;2023-03-18T10:38:19;93212.00;;;29.61;13.64
15568;BME280;7885;42.596;23.044;2023-03-18T10:40:48;93205.38;;;29.64;13.55
15568;BME280;7885;42.596;23.044;2023-03-18T10:43:17;93212.19;;;29.13;13.37
15568;BME280;7885;42.596;23.044;2023-03-18T10:45:46;93108.44;;;27.35;14.36
15568;BME280;7885;42.596;23.044;2023-03-18T10:48:18;93191.25;;;28.38;14.81
15568;BME280;7885;42.596;23.044;2023-03-18T10:51:02;93204.84;;;28.14;14.67
15568;BME280;7885;42.596;23.044;2023-03-18T10:53:37;93168.84;;;26.55;14.82
15568;BME280;7885;42.596;23.044;2023-03-18T10:56:07;93205.00;;;25.89;15.98
15568;BME280;7885;42.596;23.044;2023-03-18T11:01:03;93104.84;;;24.87;16.63
15568;BME280;7885;42.596;23.044;2023-03-18T11:03:34;93170.00;;;26.23;16.19
15568;BME280;7885;42.596;23.044;2023-03-18T11:06:03;93197.63;;;26.61;15.80
15568;BME280;7885;42.596;23.044;2023-03-18T11:08:36;93184.88;;;27.01;15.69
15568;BME280;7885;42.596;23.044;2023-03-18T11:11:15;93189.38;;;26.52;16.58
15568;BME280;7885;42.596;23.044;2023-03-18T11:13:46;93182.66;;;26.04;16.41
15568;BME280;7885;42.596;23.044;2023-03-18T11:16:28;93171.50;;;26.85;16.08
15568;BME280;7885;42.596;23.044;2023-03-18T11:18:57;93191.13;;;27.16;15.64
15568;BME280;7885;42.596;23.044;2023-03-18T11:21:26;93178.56;;;24.77;16.91
15568;BME280;7885;42.596;23.044;2023-03-18T11:23:58;93156.59;;;23.45;18.17
15568;BME280;7885;42.596;23.044;2023-03-18T11:26:47;93183.00;;;23.74;18.16
15568;BME280;7885;42.596;23.044;2023-03-18T11:29:21;93174.91;;;23.10;18.22
15568;BME280;7885;42.596;23.044;2023-03-18T11:31:51;93174.13;;;22.22;18.21
15568;BME280;7885;42.596;23.044;2023-03-18T11:34:19;93170.81;;;21.20;19.25
15568;BME280;7885;42.596;23.044;2023-03-18T11:36:58;93182.63;;;19.31;20.57
15568;BME280;7885;42.596;23.044;2023-03-18T11:39:35;93176.91;;;18.04;22.41
15568;BME280;7885;42.596;23.044;2023-03-18T11:42:16;93189.47;;;17.60;23.73
15568;BME280;7885;42.596;23.044;2023-03-18T11:44:48;93173.66;;;17.64;24.60
15568;BME280;7885;42.596;23.044;2023-03-18T11:51:01;93218.84;;;16.99;27.97
15568;BME280;7885;42.596;23.044;2023-03-18T11:53:42;93206.25;;;15.83;30.75
15568;BME280;7885;42.596;23.044;2023-03-18T11:56:18;93148.50;;;15.01;32.78
15568;BME280;7885;42.596;23.044;2023-03-18T12:02:34;93216.09;;;15.11;34.51
15568;BME280;7885;42.596;23.044;2023-03-18T12:05:49;93234.03;;;15.65;33.69
15568;BME280;7885;42.596;23.044;2023-03-18T12:08:23;93216.34;;;15.43;33.26
15568;BME280;7885;42.596;23.044;2023-03-18T12:11:00;93220.03;;;15.10;33.68
15568;BME280;7885;42.596;23.044;2023-03-18T12:13:37;93214.13;;;15.35;33.27
15568;BME280;7885;42.596;23.044;2023-03-18T12:16:17;93194.50;;;15.83;30.98
15568;BME280;7885;42.596;23.044;2023-03-18T12:19:00;93160.72;;;16.64;29.75
15568;BME280;7885;42.596;23.044;2023-03-18T12:21:44;93172.09;;;17.15;27.45
15568;BME280;7885;42.596;23.044;2023-03-18T12:24:43;93198.59;;;16.53;27.59
15568;BME280;7885;42.596;23.044;2023-03-18T12:27:26;93182.88;;;16.74;27.36
15568;BME280;7885;42.596;23.044;2023-03-18T12:30:23;93186.38;;;17.75;26.64
15568;BME280;7885;42.596;23.044;2023-03-18T12:32:58;93182.25;;;18.53;25.78
15568;BME280;7885;42.596;23.044;2023-03-18T12:38:55;93163.91;;;17.28;24.21
15568;BME280;7885;42.596;23.044;2023-03-18T12:41:32;93189.59;;;15.94;24.64
15568;BME280;7885;42.596;23.044;2023-03-18T12:44:21;93193.44;;;15.07;26.15
15568;BME280;7885;42.596;23.044;2023-03-18T12:46:55;93187.38;;;14.39;26.94
15568;BME280;7885;42.596;23.044;2023-03-18T12:49:27;93150.75;;;14.26;27.49
15568;BME280;7885;42.596;23.044;2023-03-18T12:52:00;93191.47;;;15.07;26.14
15568;BME280;7885;42.596;23.044;2023-03-18T12:54:31;93173.25;;;15.44;26.30
15568;BME280;7885;42.596;23.044;2023-03-18T12:57:03;93198.25;;;15.49;25.51
15568;BME280;7885;42.596;23.044;2023-03-18T12:59:37;93179.84;;;15.46;24.98
15568;BME280;7885;42.596;23.044;2023-03-18T13:02:20;93175.75;;;15.35;25.14
15568;BME280;7885;42.596;23.044;2023-03-18T13:04:53;93149.25;;;15.71;25.38
15568;BME280;7885;42.596;23.044;2023-03-18T13:07:25;93099.56;;;15.65;25.39
15568;BME280;7885;42.596;23.044;2023-03-18T13:16:42;93178.47;;;16.01;27.18
15568;BME280;7885;42.596;23.044;2023-03-18T13:19:09;93178.47;;;15.61;25.79
15568;BME280;7885;42.596;23.044;2023-03-18T13:21:41;93189.56;;;15.54;27.28
15568;BME280;7885;42.596;23.044;2023-03-18T13:27:20;93190.16;;;16.44;26.16
15568;BME280;7885;42.596;23.044;2023-03-18T13:29:54;93183.03;;;16.66;26.15
15568;BME280;7885;42.596;23.044;2023-03-18T13:32:40;93184.59;;;16.67;25.32
15568;BME280;7885;42.596;23.044;2023-03-18T13:35:42;93188.59;;;15.64;26.31
15568;BME280;7885;42.596;23.044;2023-03-18T13:38:26;93199.91;;;15.43;26.68
15568;BME280;7885;42.596;23.044;2023-03-18T13:41:25;93187.13;;;15.33;26.84
15568;BME280;7885;42.596;23.044;2023-03-18T13:43:58;93192.97;;;15.58;26.11
15568;BME280;7885;42.596;23.044;2023-03-18T13:46:29;93201.41;;;14.98;26.16
15568;BME280;7885;42.596;23.044;2023-03-18T13:49:00;93187.28;;;14.46;26.35
15568;BME280;7885;42.596;23.044;2023-03-18T13:51:48;93142.50;;;14.29;26.46
15568;BME280;7885;42.596;23.044;2023-03-18T13:54:16;93188.66;;;15.11;26.74
15568;BME280;7885;42.596;23.044;2023-03-18T13:56:47;93191.25;;;15.45;26.71